createdAt,value
2022-11-01T00:01:23.131Z,22.80
2022-11-01T00:03:51.009Z,22.90
2022-11-01T00:06:20.369Z,22.80
2022-11-01T00:08:48.239Z,22.80
2022-11-01T00:11:17.888Z,22.80
2022-11-01T00:13:46.025Z,22.80
2022-11-01T00:16:14.402Z,22.80
2022-11-01T00:18:42.297Z,22.80
2022-11-01T00:21:10.632Z,22.80
2022-11-01T00:23:39.819Z,22.80
2022-11-01T00:26:07.838Z,22.80
2022-11-01T00:28:35.789Z,22.80
2022-11-01T00:31:06.544Z,22.70
2022-11-01T00:33:37.447Z,22.70
2022-11-01T00:36:05.283Z,22.80
2022-11-01T00:38:33.317Z,22.70
2022-11-01T00:41:04.494Z,22.70
2022-11-01T00:43:32.508Z,22.60
2022-11-01T00:46:00.848Z,22.60
2022-11-01T00:48:28.854Z,22.70
2022-11-01T00:50:56.828Z,22.70
2022-11-01T00:53:25.285Z,22.60
2022-11-01T00:55:53.008Z,22.60
2022-11-01T00:58:22.002Z,22.60
2022-11-01T01:00:49.770Z,22.60
2022-11-01T01:03:17.452Z,22.70
2022-11-01T01:05:45.490Z,22.60
2022-11-01T01:08:13.131Z,22.60
2022-11-01T01:10:40.806Z,22.60
2022-11-01T01:13:09.029Z,22.70
2022-11-01T01:15:38.542Z,22.70
2022-11-01T01:18:06.708Z,22.70
2022-11-01T01:20:34.500Z,22.60
2022-11-01T01:23:02.826Z,22.60
2022-11-01T01:25:30.638Z,22.60
2022-11-01T01:27:58.443Z,22.60
2022-11-01T01:30:26.172Z,22.60
2022-11-01T01:32:55.240Z,22.60
2022-11-01T01:35:23.288Z,22.60
2022-11-01T01:37:52.062Z,22.60
2022-11-01T01:40:20.681Z,22.60
2022-11-01T01:42:48.375Z,22.60
2022-11-01T01:45:33.018Z,22.60
2022-11-01T01:48:10.983Z,22.60
2022-11-01T01:50:41.517Z,22.60
2022-11-01T01:53:13.907Z,22.50
2022-11-01T01:55:44.013Z,22.60
2022-11-01T01:58:12.129Z,22.50
2022-11-01T02:00:40.339Z,22.60
2022-11-01T02:03:09.592Z,22.60
2022-11-01T02:05:40.584Z,22.60
2022-11-01T02:08:08.307Z,22.60
2022-11-01T02:10:36.346Z,22.60
2022-11-01T02:13:04.182Z,22.50
2022-11-01T02:15:41.006Z,22.50
2022-11-01T02:18:16.130Z,22.50
2022-11-01T02:21:01.406Z,22.60
2022-11-01T02:23:58.751Z,22.50
2022-11-01T02:26:55.643Z,22.50
2022-11-01T02:29:32.734Z,22.50
2022-11-01T02:32:08.123Z,22.50
2022-11-01T02:34:37.313Z,22.50
2022-11-01T02:37:10.211Z,22.50
2022-11-01T02:39:40.566Z,22.50
2022-11-01T02:42:11.429Z,22.50
2022-11-01T02:44:41.111Z,22.50
2022-11-01T02:47:12.742Z,22.50
2022-11-01T02:49:41.816Z,22.50
2022-11-01T02:52:11.243Z,22.50
2022-11-01T02:54:40.164Z,22.50
2022-11-01T02:57:18.966Z,22.50
2022-11-01T02:59:48.459Z,22.50
2022-11-01T03:02:19.766Z,22.50
2022-11-01T03:04:48.033Z,22.50
2022-11-01T03:07:16.255Z,22.50
2022-11-01T03:09:43.977Z,22.50
2022-11-01T03:12:15.928Z,22.50
2022-11-01T03:14:48.293Z,22.50
2022-11-01T03:17:21.152Z,22.50
2022-11-01T03:19:50.437Z,22.50
2022-11-01T03:22:19.473Z,22.50
2022-11-01T03:24:49.084Z,22.50
2022-11-01T03:27:19.233Z,22.50
2022-11-01T03:29:49.280Z,22.50
2022-11-01T03:32:18.734Z,22.50
2022-11-01T03:34:46.590Z,22.50
2022-11-01T03:37:14.379Z,22.50
2022-11-01T03:39:44.187Z,22.50
2022-11-01T03:42:14.642Z,22.50
2022-11-01T03:44:43.343Z,22.50
2022-11-01T03:47:11.335Z,22.50
2022-11-01T03:49:41.245Z,22.50
2022-11-01T03:52:09.286Z,22.50
2022-11-01T03:54:37.588Z,22.50
2022-11-01T03:57:05.805Z,22.50
2022-11-01T03:59:34.143Z,22.50
2022-11-01T04:02:02.227Z,22.40
2022-11-01T04:04:30.658Z,22.50
2022-11-01T04:06:59.968Z,22.50
2022-11-01T04:09:28.156Z,22.50
2022-11-01T04:11:55.970Z,22.50
2022-11-01T04:14:42.050Z,22.50
2022-11-01T04:17:27.909Z,22.50
2022-11-01T04:20:13.786Z,22.40
2022-11-01T04:22:43.070Z,22.50
2022-11-01T04:25:11.366Z,22.40
2022-11-01T04:27:39.340Z,22.40
2022-11-01T04:30:08.566Z,22.40
2022-11-01T04:32:36.786Z,22.50
2022-11-01T04:35:05.049Z,22.40
2022-11-01T04:37:32.894Z,22.40
2022-11-01T04:40:01.950Z,22.40
2022-11-01T04:42:29.800Z,22.50
2022-11-01T04:44:57.478Z,22.40
2022-11-01T04:47:25.383Z,22.50
2022-11-01T04:49:53.762Z,22.50
2022-11-01T04:52:21.751Z,22.50
2022-11-01T04:54:49.663Z,22.50
2022-11-01T04:57:24.809Z,22.50
2022-11-01T04:59:53.231Z,22.50
2022-11-01T05:02:22.039Z,22.50
2022-11-01T05:04:50.081Z,22.50
2022-11-01T05:07:18.423Z,22.50
2022-11-01T05:09:46.343Z,22.50
2022-11-01T05:12:14.618Z,22.50
2022-11-01T05:14:43.796Z,22.50
2022-11-01T05:17:12.296Z,22.50
2022-11-01T05:19:40.150Z,22.50
2022-11-01T05:22:08.077Z,22.40
2022-11-01T05:24:36.086Z,22.50
2022-11-01T05:27:04.136Z,22.50
2022-11-01T05:29:33.218Z,22.50
2022-11-01T05:32:03.365Z,22.50
2022-11-01T05:34:31.138Z,22.50
2022-11-01T05:36:59.305Z,22.50
2022-11-01T05:39:27.119Z,22.50
2022-11-01T05:41:58.259Z,22.50
2022-11-01T05:44:29.770Z,22.40
2022-11-01T05:46:58.206Z,22.50
2022-11-01T05:49:27.573Z,22.50
2022-11-01T05:51:55.491Z,22.50
2022-11-01T05:54:23.254Z,22.50
2022-11-01T05:56:51.233Z,22.50
2022-11-01T05:59:19.246Z,22.40
2022-11-01T06:01:47.298Z,22.50
2022-11-01T06:04:15.241Z,22.50
2022-11-01T06:06:44.639Z,22.50
2022-11-01T06:09:13.135Z,22.50
2022-11-01T06:11:41.943Z,22.50
2022-11-01T06:14:11.752Z,22.50
2022-11-01T06:16:39.692Z,22.50
2022-11-01T06:19:08.073Z,22.50
2022-11-01T06:21:36.085Z,22.50
2022-11-01T06:24:06.504Z,22.40
2022-11-01T06:26:34.467Z,22.50
2022-11-01T06:29:03.446Z,22.40
2022-11-01T06:31:31.666Z,22.50
2022-11-01T06:34:00.024Z,22.50
2022-11-01T06:36:27.982Z,22.50
2022-11-01T06:38:56.093Z,22.40
2022-11-01T06:41:25.205Z,22.50
2022-11-01T06:43:53.415Z,22.50
2022-11-01T06:46:21.918Z,22.50
2022-11-01T06:48:49.802Z,22.50
2022-11-01T06:51:17.565Z,22.50
2022-11-01T06:53:45.294Z,22.60
2022-11-01T06:56:13.787Z,22.60
2022-11-01T06:58:43.096Z,22.60
2022-11-01T07:01:11.431Z,22.60
2022-11-01T07:03:39.219Z,22.60
2022-11-01T07:06:07.641Z,22.60
2022-11-01T07:08:35.552Z,22.60
2022-11-01T07:11:03.733Z,22.60
2022-11-01T07:13:33.920Z,22.60
2022-11-01T07:16:04.517Z,22.60
2022-11-01T07:18:32.336Z,22.70
2022-11-01T07:21:02.906Z,22.70
2022-11-01T07:23:30.836Z,22.70
2022-11-01T07:25:59.237Z,22.70
2022-11-01T07:28:27.219Z,22.70
2022-11-01T07:30:55.478Z,22.70
2022-11-01T07:33:24.774Z,22.70
2022-11-01T07:35:53.141Z,22.70
2022-11-01T07:38:21.193Z,22.70
2022-11-01T07:40:50.796Z,22.80
2022-11-01T07:43:19.258Z,22.80
2022-11-01T07:45:47.116Z,22.80
2022-11-01T07:48:15.825Z,22.90
2022-11-01T07:50:45.225Z,22.90
2022-11-01T07:53:14.105Z,22.90
2022-11-01T07:55:41.997Z,22.90
2022-11-01T07:58:10.432Z,22.90
2022-11-01T08:00:38.529Z,22.90
2022-11-01T08:03:07.246Z,22.90
2022-11-01T08:05:35.534Z,22.90
2022-11-01T08:08:06.229Z,23.00
2022-11-01T08:10:34.689Z,22.90
2022-11-01T08:13:04.293Z,23.00
2022-11-01T08:15:32.703Z,23.00
2022-11-01T08:18:01.245Z,22.90
2022-11-01T08:20:30.006Z,22.90
2022-11-01T08:22:58.669Z,22.90
2022-11-01T08:25:28.570Z,23.00
2022-11-01T08:27:56.862Z,23.00
2022-11-01T08:30:25.271Z,23.00
2022-11-01T08:32:59.364Z,23.00
2022-11-01T08:35:27.512Z,23.00
2022-11-01T08:37:55.536Z,22.90
2022-11-01T08:40:23.504Z,23.00
2022-11-01T08:42:53.124Z,23.00
2022-11-01T08:45:21.463Z,23.00
2022-11-01T08:47:49.318Z,23.10
2022-11-01T08:50:18.469Z,23.20
2022-11-01T08:52:46.342Z,23.40
2022-11-01T08:55:14.425Z,23.70
2022-11-01T08:57:42.206Z,23.90
2022-11-01T09:00:13.948Z,24.30
2022-11-01T09:02:41.804Z,24.60
2022-11-01T09:05:10.100Z,24.80
2022-11-01T09:07:38.283Z,25.10
2022-11-01T09:10:07.518Z,25.30
2022-11-01T09:12:35.453Z,25.50
2022-11-01T09:15:03.774Z,25.70
2022-11-01T09:17:33.218Z,25.90
2022-11-01T09:20:01.227Z,26.20
2022-11-01T09:22:29.570Z,26.40
2022-11-01T09:24:58.680Z,26.60
2022-11-01T09:27:26.811Z,26.80
2022-11-01T09:29:54.715Z,27.00
2022-11-01T09:32:22.841Z,27.20
2022-11-01T09:34:52.280Z,27.40
2022-11-01T09:37:20.045Z,27.60
2022-11-01T09:39:47.796Z,27.80
2022-11-01T09:42:19.930Z,28.00
2022-11-01T09:44:48.257Z,28.20
2022-11-01T09:47:17.246Z,28.40
2022-11-01T09:49:47.225Z,28.60
2022-11-01T09:52:19.682Z,28.80
2022-11-01T09:54:47.814Z,28.90
2022-11-01T09:57:19.292Z,29.10
2022-11-01T09:59:49.457Z,29.10
2022-11-01T10:02:30.916Z,29.20
2022-11-01T10:05:07.364Z,29.30
2022-11-01T10:07:41.171Z,29.40
2022-11-01T10:10:18.010Z,29.60
2022-11-01T10:12:51.856Z,29.60
2022-11-01T10:15:28.224Z,29.70
2022-11-01T10:17:56.338Z,29.90
2022-11-01T10:20:25.415Z,30.20
2022-11-01T10:22:54.405Z,30.30
2022-11-01T10:25:23.857Z,30.60
2022-11-01T10:27:54.917Z,30.70
2022-11-01T10:30:23.359Z,30.90
2022-11-01T10:32:52.957Z,31.10
2022-11-01T10:35:22.273Z,31.30
2022-11-01T10:38:04.349Z,31.50
2022-11-01T10:40:44.173Z,31.80
2022-11-01T10:43:14.706Z,31.90
2022-11-01T10:45:47.409Z,32.10
2022-11-01T10:48:22.078Z,32.30
2022-11-01T10:50:50.782Z,32.50
2022-11-01T10:53:18.768Z,32.70
2022-11-01T10:55:49.282Z,33.00
2022-11-01T10:58:20.230Z,33.10
2022-11-01T11:00:48.608Z,33.30
2022-11-01T11:03:19.396Z,33.50
2022-11-01T11:05:48.083Z,33.80
2022-11-01T11:08:16.805Z,34.00
2022-11-01T11:10:44.921Z,34.20
2022-11-01T11:13:14.957Z,34.30
2022-11-01T11:15:45.025Z,34.50
2022-11-01T11:18:18.636Z,34.80
2022-11-01T11:20:46.956Z,34.80
2022-11-01T11:23:14.615Z,34.50
2022-11-01T11:25:44.949Z,34.20
2022-11-01T11:28:21.752Z,33.90
2022-11-01T11:30:49.466Z,33.60
2022-11-01T11:33:17.620Z,33.20
2022-11-01T11:35:59.120Z,32.90
2022-11-01T11:38:43.249Z,32.60
2022-11-01T11:41:12.805Z,32.70
2022-11-01T11:43:42.587Z,32.70
2022-11-01T11:46:15.479Z,32.60
2022-11-01T11:48:50.625Z,32.30
2022-11-01T11:51:18.516Z,32.50
2022-11-01T11:53:46.444Z,33.00
2022-11-01T11:56:14.291Z,33.20
2022-11-01T11:58:44.994Z,33.60
2022-11-01T12:01:14.172Z,34.00
2022-11-01T12:03:46.612Z,34.00
2022-11-01T12:06:17.897Z,34.10
2022-11-01T12:08:47.236Z,34.20
2022-11-01T12:11:15.669Z,34.10
2022-11-01T12:13:46.301Z,33.80
2022-11-01T12:16:20.425Z,33.60
2022-11-01T12:18:50.058Z,33.20
2022-11-01T12:21:19.881Z,32.80
2022-11-01T12:23:48.001Z,32.40
2022-11-01T12:26:16.762Z,32.00
2022-11-01T12:28:46.937Z,31.60
2022-11-01T12:31:16.145Z,31.40
2022-11-01T12:33:48.616Z,31.10
2022-11-01T12:36:16.337Z,31.00
2022-11-01T12:38:44.667Z,30.90
2022-11-01T12:41:30.909Z,31.20
2022-11-01T12:44:31.999Z,31.60
2022-11-01T12:47:04.021Z,32.10
2022-11-01T12:49:34.234Z,32.70
2022-11-01T12:52:04.180Z,33.10
2022-11-01T12:54:34.549Z,33.50
2022-11-01T12:57:02.951Z,33.80
2022-11-01T12:59:35.497Z,34.00
2022-11-01T13:02:11.172Z,34.30
2022-11-01T13:04:41.686Z,34.50
2022-11-01T13:07:22.033Z,34.40
2022-11-01T13:09:55.116Z,34.60
2022-11-01T13:12:27.665Z,34.30
2022-11-01T13:15:02.465Z,34.10
2022-11-01T13:17:35.023Z,34.30
2022-11-01T13:20:06.981Z,34.20
2022-11-01T13:22:37.952Z,34.00
2022-11-01T13:25:07.430Z,33.80
2022-11-01T13:27:37.469Z,33.70
2022-11-01T13:30:10.365Z,33.60
2022-11-01T13:32:41.066Z,33.80
2022-11-01T13:35:33.341Z,34.00
2022-11-01T13:38:04.517Z,34.20
2022-11-01T13:40:34.392Z,34.30
2022-11-01T13:43:05.327Z,34.30
2022-11-01T13:45:59.328Z,34.00
2022-11-01T13:48:31.347Z,33.90
2022-11-01T13:51:06.269Z,33.50
2022-11-01T13:53:35.362Z,33.20
2022-11-01T13:56:05.551Z,32.80
2022-11-01T13:58:33.799Z,32.50
2022-11-01T14:01:31.932Z,32.20
2022-11-01T14:04:24.631Z,32.00
2022-11-01T14:07:05.308Z,31.70
2022-11-01T14:09:33.449Z,31.40
2022-11-01T14:12:12.548Z,31.20
2022-11-01T14:14:50.774Z,31.00
2022-11-01T14:18:01.915Z,30.80
2022-11-01T14:20:53.228Z,30.70
2022-11-01T14:24:02.120Z,30.50
2022-11-01T14:26:55.161Z,30.30
2022-11-01T14:29:23.034Z,30.20
2022-11-01T14:31:53.065Z,30.00
2022-11-01T14:34:30.234Z,29.80
2022-11-01T14:37:17.093Z,29.70
2022-11-01T14:39:48.182Z,29.60
2022-11-01T14:42:20.180Z,29.50
2022-11-01T14:44:50.653Z,29.40
2022-11-01T14:47:25.451Z,29.40
2022-11-01T14:49:54.282Z,29.40
2022-11-01T14:52:27.182Z,29.40
2022-11-01T14:54:57.347Z,29.40
2022-11-01T14:57:31.600Z,29.40
2022-11-01T14:59:59.714Z,29.40
2022-11-01T15:02:28.708Z,29.30
2022-11-01T15:04:58.695Z,29.30
2022-11-01T15:07:30.992Z,29.20
2022-11-01T15:10:00.276Z,29.10
2022-11-01T15:12:32.346Z,29.00
2022-11-01T15:15:00.031Z,28.90
2022-11-01T15:17:29.854Z,28.80
2022-11-01T15:19:58.496Z,28.70
2022-11-01T15:22:29.825Z,28.60
2022-11-01T15:24:58.678Z,28.50
2022-11-01T15:27:30.436Z,28.40
2022-11-01T15:29:58.300Z,28.30
2022-11-01T15:32:29.615Z,28.20
2022-11-01T15:34:58.838Z,28.20
2022-11-01T15:37:31.027Z,28.10
2022-11-01T15:42:32.569Z,27.90
2022-11-01T15:45:15.197Z,27.80
2022-11-01T15:47:43.477Z,27.60
2022-11-01T15:50:11.398Z,27.50
2022-11-01T15:52:40.492Z,27.50
2022-11-01T15:55:10.251Z,27.40
2022-11-01T15:57:39.597Z,27.30
2022-11-01T16:00:08.843Z,27.20
2022-11-01T16:02:40.624Z,27.10
2022-11-01T16:05:09.297Z,27.10
2022-11-01T16:07:37.724Z,27.00
2022-11-01T16:10:09.732Z,26.90
2022-11-01T16:12:38.491Z,26.90
2022-11-01T16:15:07.427Z,26.80
2022-11-01T16:17:36.004Z,26.70
2022-11-01T16:20:06.125Z,26.60
2022-11-01T16:22:36.635Z,26.60
2022-11-01T16:25:16.708Z,26.50
2022-11-01T16:28:00.203Z,26.50
2022-11-01T16:30:50.162Z,26.40
2022-11-01T16:33:19.889Z,26.30
2022-11-01T16:35:48.573Z,26.20
2022-11-01T16:38:29.830Z,26.20
2022-11-01T16:41:00.447Z,26.10
2022-11-01T16:43:29.228Z,26.00
2022-11-01T16:45:57.145Z,26.00
2022-11-01T16:48:25.975Z,25.90
2022-11-01T16:50:55.162Z,25.90
2022-11-01T16:53:23.358Z,25.80
2022-11-01T16:55:53.196Z,25.80
2022-11-01T16:58:27.591Z,25.70
2022-11-01T17:00:56.832Z,25.60
2022-11-01T17:03:24.957Z,25.60
2022-11-01T17:05:56.183Z,25.50
2022-11-01T17:08:25.491Z,25.50
2022-11-01T17:10:53.430Z,25.40
2022-11-01T17:13:21.322Z,25.40
2022-11-01T17:15:52.543Z,25.40
2022-11-01T17:18:25.643Z,25.30
2022-11-01T17:20:56.153Z,25.30
2022-11-01T17:23:24.384Z,25.20
2022-11-01T17:25:52.887Z,25.20
2022-11-01T17:28:21.383Z,25.10
2022-11-01T17:30:50.832Z,25.10
2022-11-01T17:33:18.550Z,25.10
2022-11-01T17:35:46.740Z,25.00
2022-11-01T17:38:15.509Z,24.90
2022-11-01T17:40:45.386Z,24.90
2022-11-01T17:43:16.590Z,24.90
2022-11-01T17:45:44.487Z,24.90
2022-11-01T17:48:13.956Z,24.90
2022-11-01T17:50:41.874Z,24.90
2022-11-01T17:53:10.960Z,24.80
2022-11-01T17:55:39.235Z,24.80
2022-11-01T17:58:07.557Z,24.80
2022-11-01T18:00:36.045Z,24.70
2022-11-01T18:03:04.382Z,24.70
2022-11-01T18:05:33.835Z,24.70
2022-11-01T18:08:02.741Z,24.60
2022-11-01T18:10:36.736Z,24.60
2022-11-01T18:13:29.476Z,24.60
2022-11-01T18:15:59.924Z,24.60
2022-11-01T18:18:38.730Z,24.50
2022-11-01T18:21:11.924Z,24.50
2022-11-01T18:23:40.616Z,24.50
2022-11-01T18:26:12.140Z,24.50
2022-11-01T18:28:40.128Z,24.40
2022-11-01T18:31:13.072Z,24.40
2022-11-01T18:33:42.474Z,24.40
2022-11-01T18:36:14.594Z,24.40
2022-11-01T18:38:44.662Z,24.30
2022-11-01T18:41:13.593Z,24.30
2022-11-01T18:43:41.633Z,24.30
2022-11-01T18:46:30.663Z,24.30
2022-11-01T18:49:01.154Z,24.30
2022-11-01T18:51:31.369Z,24.30
2022-11-01T18:54:23.791Z,24.30
2022-11-01T18:56:52.620Z,24.30
2022-11-01T18:59:27.177Z,24.20
2022-11-01T19:01:56.581Z,24.20
2022-11-01T19:04:26.155Z,24.10
2022-11-01T19:06:57.766Z,24.10
2022-11-01T19:09:28.174Z,24.10
2022-11-01T19:11:59.166Z,24.10
2022-11-01T19:14:27.726Z,24.10
2022-11-01T19:16:56.470Z,24.10
2022-11-01T19:19:24.710Z,24.10
2022-11-01T19:21:52.597Z,24.10
2022-11-01T19:24:31.722Z,24.00
2022-11-01T19:26:59.557Z,24.00
2022-11-01T19:29:30.049Z,23.90
2022-11-01T19:31:59.108Z,23.90
2022-11-01T19:34:28.194Z,23.90
2022-11-01T19:36:56.293Z,23.90
2022-11-01T19:39:24.883Z,23.80
2022-11-01T19:41:55.062Z,23.80
2022-11-01T19:44:24.155Z,23.80
2022-11-01T19:46:54.571Z,23.80
2022-11-01T19:49:24.636Z,23.70
2022-11-01T19:51:59.287Z,23.80
2022-11-01T19:54:27.989Z,23.80
2022-11-01T19:56:59.732Z,23.80
2022-11-01T19:59:27.409Z,23.70
2022-11-01T20:01:56.096Z,23.70
2022-11-01T20:04:27.976Z,23.70
2022-11-01T20:06:58.024Z,23.60
2022-11-01T20:09:27.023Z,23.60
2022-11-01T20:11:55.450Z,23.60
2022-11-01T20:14:25.030Z,23.60
2022-11-01T20:16:53.237Z,23.60
2022-11-01T20:19:21.762Z,23.60
2022-11-01T20:21:50.250Z,23.60
2022-11-01T20:24:18.225Z,23.50
2022-11-01T20:26:46.804Z,23.50
2022-11-01T20:29:14.712Z,23.50
2022-11-01T20:31:44.238Z,23.40
2022-11-01T20:34:12.189Z,23.40
2022-11-01T20:36:39.966Z,23.40
2022-11-01T20:39:10.304Z,23.40
2022-11-01T20:41:41.257Z,23.40
2022-11-01T20:44:09.067Z,23.40
2022-11-01T20:46:37.037Z,23.30
2022-11-01T20:49:06.335Z,23.30
2022-11-01T20:51:34.376Z,23.30
2022-11-01T20:54:02.645Z,23.30
2022-11-01T20:56:30.512Z,23.30
2022-11-01T20:58:58.520Z,23.30
2022-11-01T21:01:26.575Z,23.30
2022-11-01T21:03:55.539Z,23.30
2022-11-01T21:06:26.561Z,23.30
2022-11-01T21:08:54.905Z,23.20
2022-11-01T21:11:43.805Z,23.20
2022-11-01T21:14:14.090Z,23.20
2022-11-01T21:16:41.747Z,23.10
2022-11-01T21:19:14.301Z,23.00
2022-11-01T21:21:47.036Z,23.10
2022-11-01T21:24:32.361Z,23.00
2022-11-01T21:27:19.874Z,23.00
2022-11-01T21:29:48.708Z,23.00
2022-11-01T21:32:27.012Z,23.00
2022-11-01T21:34:55.255Z,23.00
2022-11-01T21:37:25.052Z,22.90
2022-11-01T21:39:55.703Z,23.00
2022-11-01T21:42:31.702Z,22.90
2022-11-01T21:44:59.821Z,22.90
2022-11-01T21:47:28.735Z,22.90
2022-11-01T21:49:56.661Z,22.90
2022-11-01T21:52:25.942Z,22.90
2022-11-01T21:54:54.269Z,22.90
2022-11-01T21:57:22.334Z,22.90
2022-11-01T21:59:52.247Z,22.80
2022-11-01T22:02:20.215Z,22.80
2022-11-01T22:04:48.029Z,22.80
2022-11-01T22:07:15.882Z,22.80
2022-11-01T22:09:44.982Z,22.80
2022-11-01T22:12:12.772Z,22.80
2022-11-01T22:14:40.611Z,22.80
2022-11-01T22:17:08.907Z,22.70
2022-11-01T22:19:36.775Z,22.70
2022-11-01T22:22:05.126Z,22.70
2022-11-01T22:24:32.952Z,22.70
2022-11-01T22:27:02.550Z,22.70
2022-11-01T22:29:30.393Z,22.70
2022-11-01T22:31:58.309Z,22.60
2022-11-01T22:34:26.210Z,22.60
2022-11-01T22:36:54.211Z,22.60
2022-11-01T22:39:23.349Z,22.50
2022-11-01T22:41:51.247Z,22.50
2022-11-01T22:44:23.972Z,22.50
2022-11-01T22:46:57.982Z,22.50
2022-11-01T22:49:27.551Z,22.40
2022-11-01T22:51:56.260Z,22.50
2022-11-01T22:54:31.176Z,22.50
2022-11-01T22:57:01.994Z,22.50
2022-11-01T22:59:33.448Z,22.50
2022-11-01T23:02:05.092Z,22.50
2022-11-01T23:04:34.224Z,22.40
2022-11-01T23:07:02.441Z,22.40
2022-11-01T23:09:30.672Z,22.30
2022-11-01T23:12:16.289Z,22.30
2022-11-01T23:14:46.775Z,22.40
2022-11-01T23:17:22.269Z,22.40
2022-11-01T23:19:52.472Z,22.30
2022-11-01T23:22:21.420Z,22.40
2022-11-01T23:24:50.586Z,22.40
2022-11-01T23:27:18.663Z,22.30
2022-11-01T23:29:49.277Z,22.30
2022-11-01T23:32:17.187Z,22.30
2022-11-01T23:34:45.981Z,22.30
2022-11-01T23:37:15.449Z,22.30
2022-11-01T23:39:43.660Z,22.20
2022-11-01T23:42:16.600Z,22.30
2022-11-01T23:44:44.424Z,22.30
2022-11-01T23:47:23.516Z,22.20
2022-11-01T23:50:03.322Z,22.30
2022-11-01T23:52:41.970Z,22.20
2022-11-01T23:55:17.577Z,22.20
2022-11-01T23:57:45.510Z,22.20
